createdAt,value
2022-08-05T00:01:20.896Z,92819.47
2022-08-05T00:04:11.537Z,92817.75
2022-08-05T00:06:56.646Z,92820.91
2022-08-05T00:09:39.734Z,92826.06
2022-08-05T00:12:27.154Z,92819.06
2022-08-05T00:15:54.082Z,92820.00
2022-08-05T00:18:22.660Z,92821.19
2022-08-05T00:21:08.184Z,92818.72
2022-08-05T00:24:09.979Z,92826.28
2022-08-05T00:26:54.052Z,92822.06
2022-08-05T00:29:38.222Z,92812.81
2022-08-05T00:32:22.913Z,92810.75
2022-08-05T00:35:09.743Z,92813.38
2022-08-05T00:37:54.098Z,92814.97
2022-08-05T00:40:51.814Z,92810.75
2022-08-05T00:43:46.596Z,92810.75
2022-08-05T00:46:42.822Z,92805.50
2022-08-05T00:49:28.119Z,92796.81
2022-08-05T00:52:15.964Z,92799.69
2022-08-05T00:55:00.510Z,92797.84
2022-08-05T00:57:58.045Z,92791.00
2022-08-05T01:00:42.637Z,92794.66
2022-08-05T01:03:30.966Z,92797.28
2022-08-05T01:06:18.552Z,92798.06
2022-08-05T01:09:03.132Z,92791.00
2022-08-05T01:11:49.649Z,92784.47
2022-08-05T01:14:36.214Z,92775.31
2022-08-05T01:17:27.943Z,92781.13
2022-08-05T01:20:24.338Z,92777.72
2022-08-05T01:23:23.740Z,92778.03
2022-08-05T01:26:20.842Z,92772.00
2022-08-05T01:29:18.931Z,92777.00
2022-08-05T01:32:12.295Z,92764.66
2022-08-05T01:35:00.563Z,92768.34
2022-08-05T01:37:48.769Z,92776.69
2022-08-05T01:40:33.885Z,92772.22
2022-08-05T01:43:22.133Z,92764.00
2022-08-05T01:46:16.387Z,92763.22
2022-08-05T01:49:23.800Z,92761.06
2022-08-05T01:52:17.599Z,92757.06
2022-08-05T01:55:05.596Z,92757.00
2022-08-05T01:58:29.946Z,92758.28
2022-08-05T02:00:56.692Z,92762.44
2022-08-05T02:03:46.357Z,92759.69
2022-08-05T02:06:37.478Z,92751.72
2022-08-05T02:09:21.884Z,92756.38
2022-08-05T02:12:10.142Z,92755.03
2022-08-05T02:14:58.723Z,92743.66
2022-08-05T02:18:31.017Z,92743.66
2022-08-05T02:21:01.124Z,92749.38
2022-08-05T02:23:48.379Z,92751.75
2022-08-05T02:26:39.407Z,92744.91
2022-08-05T02:29:58.770Z,92751.44
2022-08-05T02:32:42.970Z,92743.16
2022-08-05T02:35:33.225Z,92743.53
2022-08-05T02:38:26.979Z,92740.50
2022-08-05T02:41:20.402Z,92744.03
2022-08-05T02:44:13.321Z,92739.25
2022-08-05T02:47:00.300Z,92744.75
2022-08-05T02:49:45.663Z,92739.50
2022-08-05T02:52:30.911Z,92741.56
2022-08-05T02:55:17.552Z,92736.78
2022-08-05T02:58:20.345Z,92729.59
2022-08-05T03:01:04.517Z,92735.31
2022-08-05T03:04:02.582Z,92727.34
2022-08-05T03:06:59.119Z,92733.84
2022-08-05T03:09:51.630Z,92728.03
2022-08-05T03:12:38.162Z,92723.72
2022-08-05T03:15:23.481Z,92724.97
2022-08-05T03:18:07.155Z,92720.19
2022-08-05T03:20:50.867Z,92732.97
2022-08-05T03:23:34.931Z,92733.41
2022-08-05T03:26:32.075Z,92730.47
2022-08-05T03:29:17.342Z,92729.69
2022-08-05T03:32:01.740Z,92728.66
2022-08-05T03:34:50.474Z,92726.81
2022-08-05T03:37:46.417Z,92730.22
2022-08-05T03:40:32.468Z,92722.34
2022-08-05T03:44:08.996Z,92727.84
2022-08-05T03:46:20.940Z,92725.47
2022-08-05T03:49:10.040Z,92718.63
2022-08-05T03:52:37.708Z,92719.88
2022-08-05T03:55:52.891Z,92719.88
2022-08-05T03:58:12.138Z,92720.09
2022-08-05T04:00:56.850Z,92718.28
2022-08-05T04:04:09.870Z,92720.09
2022-08-05T04:06:51.102Z,92718.50
2022-08-05T04:09:36.640Z,92721.94
2022-08-05T04:12:24.401Z,92718.50
2022-08-05T04:15:09.009Z,92724.56
2022-08-05T04:18:01.794Z,92726.84
2022-08-05T04:20:46.202Z,92716.81
2022-08-05T04:23:57.369Z,92712.38
2022-08-05T04:26:33.686Z,92711.34
2022-08-05T04:29:17.057Z,92710.31
2022-08-05T04:32:00.242Z,92717.72
2022-08-05T04:34:43.529Z,92721.94
2022-08-05T04:37:31.552Z,92719.09
2022-08-05T04:40:34.648Z,92716.00
2022-08-05T04:43:17.928Z,92724.19
2022-08-05T04:46:05.543Z,92723.97
2022-08-05T04:48:48.646Z,92726.38
2022-08-05T04:51:34.864Z,92727.72
2022-08-05T04:54:19.851Z,92721.22
2022-08-05T04:57:02.973Z,92720.19
2022-08-05T04:59:47.960Z,92722.34
2022-08-05T05:02:37.567Z,92728.97
2022-08-05T05:05:28.585Z,92728.97
2022-08-05T05:08:14.420Z,92721.66
2022-08-05T05:11:11.786Z,92722.47
2022-08-05T05:13:58.453Z,92721.19
2022-08-05T05:16:42.200Z,92726.00
2022-08-05T05:19:36.279Z,92729.19
2022-08-05T05:22:26.129Z,92723.78
2022-08-05T05:25:16.408Z,92729.38
2022-08-05T05:28:01.887Z,92729.94
2022-08-05T05:30:49.717Z,92734.97
2022-08-05T05:33:33.143Z,92728.44
2022-08-05T05:36:37.430Z,92733.22
2022-08-05T05:39:22.087Z,92733.78
2022-08-05T05:42:07.042Z,92738.53
2022-08-05T05:44:51.492Z,92741.75
2022-08-05T05:48:05.617Z,92744.16
2022-08-05T05:50:44.413Z,92742.09
2022-08-05T05:53:27.750Z,92744.72
2022-08-05T05:56:10.928Z,92751.56
2022-08-05T05:58:54.019Z,92754.50
2022-08-05T06:01:57.071Z,92748.78
2022-08-05T06:04:41.213Z,92753.31
2022-08-05T06:07:41.192Z,92758.13
2022-08-05T06:10:25.449Z,92756.84
2022-08-05T06:13:12.554Z,92760.03
2022-08-05T06:16:30.805Z,92766.41
2022-08-05T06:19:01.953Z,92761.00
2022-08-05T06:21:49.761Z,92763.16
2022-08-05T06:24:33.313Z,92771.72
2022-08-05T06:28:12.352Z,92762.09
2022-08-05T06:30:21.233Z,92767.19
2022-08-05T06:33:04.707Z,92768.97
2022-08-05T06:36:06.995Z,92774.69
2022-08-05T06:38:54.766Z,92766.97
2022-08-05T06:41:40.516Z,92764.19
2022-08-05T06:44:24.434Z,92762.97
2022-08-05T06:47:10.372Z,92762.56
2022-08-05T06:50:12.092Z,92763.22
2022-08-05T06:53:11.395Z,92764.56
2022-08-05T06:55:54.934Z,92768.31
2022-08-05T06:58:39.891Z,92766.78
2022-08-05T07:01:23.451Z,92770.03
2022-08-05T07:04:11.122Z,92768.81
2022-08-05T07:06:57.175Z,92763.94
2022-08-05T07:09:43.288Z,92769.00
2022-08-05T07:12:43.771Z,92765.41
2022-08-05T07:16:01.583Z,92770.78
2022-08-05T07:18:48.033Z,92775.97
2022-08-05T07:21:59.264Z,92777.38
2022-08-05T07:24:35.177Z,92776.69
2022-08-05T07:27:58.657Z,92774.13
2022-08-05T07:30:33.890Z,92786.06
2022-08-05T07:33:17.478Z,92787.44
2022-08-05T07:36:20.315Z,92787.00
2022-08-05T07:39:07.655Z,92787.06
2022-08-05T07:42:14.354Z,92788.22
2022-08-05T07:44:59.942Z,92779.06
2022-08-05T07:47:43.576Z,92784.16
2022-08-05T07:50:26.744Z,92786.31
2022-08-05T07:53:15.935Z,92795.59
2022-08-05T07:56:05.260Z,92799.63
2022-08-05T07:59:02.062Z,92806.03
2022-08-05T08:01:52.480Z,92807.69
2022-08-05T08:04:40.830Z,92800.09
2022-08-05T08:07:25.143Z,92808.34
2022-08-05T08:10:11.676Z,92806.56
2022-08-05T08:12:54.819Z,92812.94
2022-08-05T08:16:42.933Z,92813.22
2022-08-05T08:18:50.217Z,92810.06
2022-08-05T08:21:33.734Z,92814.56
2022-08-05T08:24:16.910Z,92805.88
2022-08-05T08:27:07.066Z,92810.16
2022-08-05T08:30:06.529Z,92804.09
2022-08-05T08:32:53.431Z,92811.28
2022-08-05T08:35:41.535Z,92811.31
2022-08-05T08:38:37.708Z,92801.84
2022-08-05T08:41:21.531Z,92813.44
2022-08-05T08:45:25.130Z,92805.56
2022-08-05T08:47:48.093Z,92801.09
2022-08-05T08:50:32.743Z,92808.03
2022-08-05T08:53:26.109Z,92810.19
2022-08-05T08:56:11.989Z,92813.41
2022-08-05T08:58:55.938Z,92819.00
2022-08-05T09:01:43.029Z,92822.19
2022-08-05T09:04:58.421Z,92823.00
2022-08-05T09:07:57.729Z,92830.97
2022-08-05T09:10:46.859Z,92829.66
2022-08-05T09:13:31.658Z,92827.00
2022-08-05T09:16:17.152Z,92826.72
2022-08-05T09:19:00.300Z,92817.25
2022-08-05T09:22:21.799Z,92820.38
2022-08-05T09:24:58.684Z,92821.16
2022-08-05T09:28:05.139Z,92829.59
2022-08-05T09:30:56.595Z,92831.66
2022-08-05T09:33:50.886Z,92823.34
2022-08-05T09:36:55.228Z,92831.81
2022-08-05T09:39:45.400Z,92822.44
2022-08-05T09:42:40.679Z,92820.22
2022-08-05T09:46:06.696Z,92819.06
2022-08-05T09:48:39.295Z,92825.28
2022-08-05T09:51:33.774Z,92822.00
2022-08-05T09:54:31.693Z,92817.31
2022-08-05T09:57:30.034Z,92819.16
2022-08-05T10:00:21.234Z,92821.22
2022-08-05T10:03:12.390Z,92829.34
2022-08-05T10:06:07.758Z,92836.72
2022-08-05T10:09:27.500Z,92835.53
2022-08-05T10:12:18.573Z,92832.41
2022-08-05T10:15:20.165Z,92831.94
2022-08-05T10:18:14.671Z,92838.69
2022-08-05T10:21:08.380Z,92849.66
2022-08-05T10:23:59.513Z,92847.78
2022-08-05T10:26:51.387Z,92845.81
2022-08-05T10:30:41.348Z,92853.53
2022-08-05T10:33:01.893Z,92846.56
2022-08-05T10:35:48.448Z,92843.59
2022-08-05T10:38:47.871Z,92844.22
2022-08-05T10:41:46.874Z,92840.53
2022-08-05T10:44:33.743Z,92841.97
2022-08-05T10:47:27.004Z,92848.72
2022-08-05T10:50:33.259Z,92846.59
2022-08-05T10:53:38.087Z,92843.09
2022-08-05T10:56:25.943Z,92837.03
2022-08-05T11:00:01.347Z,92848.16
2022-08-05T11:02:34.943Z,92850.06
2022-08-05T11:05:18.377Z,92854.81
2022-08-05T11:08:21.716Z,92845.75
2022-08-05T11:11:44.669Z,92853.66
2022-08-05T11:15:01.329Z,92846.56
2022-08-05T11:17:58.950Z,92846.75
2022-08-05T11:20:47.208Z,92849.41
2022-08-05T11:24:02.579Z,92852.38
2022-08-05T11:26:43.502Z,92849.69
2022-08-05T11:29:38.226Z,92854.56
2022-08-05T11:32:26.442Z,92850.75
2022-08-05T11:35:10.454Z,92853.38
2022-08-05T11:38:29.217Z,92849.66
2022-08-05T11:41:35.145Z,92848.00
2022-08-05T11:44:40.925Z,92847.44
2022-08-05T11:47:49.570Z,92847.75
2022-08-05T11:50:27.414Z,92849.53
2022-08-05T11:53:10.618Z,92848.50
2022-08-05T11:55:57.769Z,92852.03
2022-08-05T11:58:43.344Z,92845.50
2022-08-05T12:01:37.774Z,92851.59
2022-08-05T12:04:21.846Z,92851.53
2022-08-05T12:07:07.235Z,92846.06
2022-08-05T12:09:55.098Z,92842.50
2022-08-05T12:12:39.059Z,92850.22
2022-08-05T12:15:44.639Z,92852.03
2022-08-05T12:18:38.664Z,92842.84
2022-08-05T12:21:24.653Z,92840.72
2022-08-05T12:24:13.961Z,92833.25
2022-08-05T12:27:09.805Z,92843.84
2022-08-05T12:30:07.901Z,92833.19
2022-08-05T12:32:53.810Z,92839.47
2022-08-05T12:35:41.070Z,92831.03
2022-08-05T12:38:30.090Z,92824.09
2022-08-05T12:41:16.375Z,92828.78
2022-08-05T12:44:01.767Z,92819.88
2022-08-05T12:46:54.511Z,92827.13
2022-08-05T12:50:03.594Z,92819.59
2022-08-05T12:52:59.463Z,92827.41
2022-08-05T12:55:42.829Z,92823.19
2022-08-05T12:58:49.407Z,92822.88
2022-08-05T13:02:03.862Z,92815.72
2022-08-05T13:04:34.046Z,92818.34
2022-08-05T13:07:57.659Z,92816.13
2022-08-05T13:10:33.232Z,92813.13
2022-08-05T13:14:06.835Z,92814.16
2022-08-05T13:16:27.831Z,92804.28
2022-08-05T13:19:14.087Z,92804.78
2022-08-05T13:21:59.178Z,92816.03
2022-08-05T13:24:57.263Z,92806.63
2022-08-05T13:27:50.251Z,92800.78
2022-08-05T13:30:39.095Z,92806.97
2022-08-05T13:34:22.982Z,92804.31
2022-08-05T13:36:25.775Z,92799.59
2022-08-05T13:40:13.027Z,92787.16
2022-08-05T13:42:14.044Z,92791.66
2022-08-05T13:44:59.396Z,92787.81
2022-08-05T13:48:08.854Z,92788.41
2022-08-05T13:50:45.597Z,92786.38
2022-08-05T13:53:31.161Z,92786.72
2022-08-05T13:56:18.793Z,92779.84
2022-08-05T13:59:06.118Z,92793.75
2022-08-05T14:02:04.909Z,92789.81
2022-08-05T14:05:11.362Z,92783.63
2022-08-05T14:08:03.159Z,92786.72
2022-08-05T14:10:50.328Z,92784.38
2022-08-05T14:13:33.438Z,92783.44
2022-08-05T14:16:19.225Z,92784.53
2022-08-05T14:19:04.589Z,92785.16
2022-08-05T14:22:08.936Z,92785.34
2022-08-05T14:24:51.370Z,92785.22
2022-08-05T14:27:34.529Z,92779.69
2022-08-05T14:30:26.444Z,92784.78
2022-08-05T14:33:10.621Z,92783.13
2022-08-05T14:36:01.450Z,92781.84
2022-08-05T14:38:45.236Z,92777.78
2022-08-05T14:41:28.392Z,92775.09
2022-08-05T14:44:20.051Z,92766.19
2022-08-05T14:47:03.862Z,92768.47
2022-08-05T14:49:59.745Z,92763.81
2022-08-05T14:52:53.115Z,92764.03
2022-08-05T14:55:41.020Z,92755.38
2022-08-05T14:58:23.935Z,92753.41
2022-08-05T15:01:07.260Z,92751.69
2022-08-05T15:03:59.386Z,92751.81
2022-08-05T15:06:49.258Z,92754.75
2022-08-05T15:09:51.890Z,92754.78
2022-08-05T15:12:59.732Z,92755.53
2022-08-05T15:15:55.324Z,92751.25
2022-08-05T15:18:39.188Z,92755.94
2022-08-05T15:21:24.743Z,92756.31
2022-08-05T15:24:14.199Z,92751.34
2022-08-05T15:27:01.102Z,92757.38
2022-08-05T15:29:44.180Z,92760.66
2022-08-05T15:32:28.837Z,92754.06
2022-08-05T15:35:12.443Z,92750.31
2022-08-05T15:38:32.741Z,92749.28
2022-08-05T15:41:22.672Z,92747.91
2022-08-05T15:44:03.893Z,92757.06
2022-08-05T15:46:47.465Z,92754.09
2022-08-05T15:49:48.183Z,92758.22
2022-08-05T15:52:52.761Z,92755.66
2022-08-05T15:56:04.227Z,92750.78
2022-08-05T15:58:41.352Z,92756.13
2022-08-05T16:01:29.538Z,92750.28
2022-08-05T16:04:25.489Z,92761.28
2022-08-05T16:07:10.555Z,92759.94
2022-08-05T16:09:54.312Z,92762.91
2022-08-05T16:12:37.371Z,92767.47
2022-08-05T16:15:21.771Z,92778.56
2022-08-05T16:18:09.198Z,92766.75
2022-08-05T16:20:54.171Z,92770.97
2022-08-05T16:23:54.130Z,92771.34
2022-08-05T16:26:51.156Z,92766.59
2022-08-05T16:29:37.095Z,92767.31
2022-08-05T16:32:23.662Z,92764.78
2022-08-05T16:35:12.885Z,92770.97
2022-08-05T16:38:02.533Z,92778.06
2022-08-05T16:41:01.422Z,92778.09
2022-08-05T16:43:44.747Z,92777.75
2022-08-05T16:46:28.448Z,92786.34
2022-08-05T16:49:12.285Z,92779.38
2022-08-05T16:51:58.613Z,92784.88
2022-08-05T16:54:42.085Z,92792.81
2022-08-05T16:57:39.915Z,92795.69
2022-08-05T17:00:34.907Z,92789.78
2022-08-05T17:03:21.167Z,92791.56
2022-08-05T17:06:04.698Z,92791.38
2022-08-05T17:08:52.973Z,92787.50
2022-08-05T17:11:48.849Z,92785.72
2022-08-05T17:14:38.123Z,92791.75
2022-08-05T17:17:22.572Z,92791.94
2022-08-05T17:20:09.203Z,92792.44
2022-08-05T17:22:58.799Z,92793.97
2022-08-05T17:25:43.280Z,92796.19
2022-08-05T17:28:26.418Z,92788.81
2022-08-05T17:31:24.512Z,92800.63
2022-08-05T17:34:17.943Z,92790.16
2022-08-05T17:37:01.641Z,92801.25
2022-08-05T17:39:44.750Z,92804.94
2022-08-05T17:42:32.971Z,92805.66
2022-08-05T17:45:20.095Z,92803.72
2022-08-05T17:48:05.764Z,92805.00
2022-08-05T17:50:48.785Z,92801.47
2022-08-05T17:53:33.020Z,92798.34
2022-08-05T17:56:19.277Z,92805.38
2022-08-05T17:59:03.646Z,92808.41
2022-08-05T18:01:50.394Z,92807.16
2022-08-05T18:04:33.858Z,92813.38
2022-08-05T18:07:41.528Z,92816.97
2022-08-05T18:10:25.554Z,92821.66
2022-08-05T18:13:12.247Z,92805.78
2022-08-05T18:15:57.802Z,92813.25
2022-08-05T18:18:47.984Z,92821.78
2022-08-05T18:22:09.245Z,92815.47
2022-08-05T18:24:37.748Z,92826.63
2022-08-05T18:27:22.904Z,92817.94
2022-08-05T18:30:06.988Z,92824.84
2022-08-05T18:33:00.443Z,92824.91
2022-08-05T18:36:00.960Z,92827.59
2022-08-05T18:38:47.867Z,92825.25
2022-08-05T18:41:55.808Z,92831.66
2022-08-05T18:44:51.410Z,92839.13
2022-08-05T18:47:38.911Z,92840.25
2022-08-05T18:50:42.187Z,92843.47
2022-08-05T18:53:32.275Z,92858.41
2022-08-05T18:56:21.803Z,92857.63
2022-08-05T18:59:42.694Z,92867.47
2022-08-05T19:02:28.164Z,92873.34
2022-08-05T19:06:12.628Z,92869.88
2022-08-05T19:08:16.334Z,92876.00
2022-08-05T19:11:04.812Z,92873.88
2022-08-05T19:13:48.320Z,92867.81
2022-08-05T19:16:46.785Z,92882.41
2022-08-05T19:19:30.698Z,92878.72
2022-08-05T19:22:17.275Z,92884.53
2022-08-05T19:25:02.815Z,92886.19
2022-08-05T19:27:46.331Z,92897.31
2022-08-05T19:30:33.064Z,92898.91
2022-08-05T19:33:16.974Z,92888.63
2022-08-05T19:36:17.268Z,92893.13
2022-08-05T19:39:02.013Z,92899.53
2022-08-05T19:42:06.486Z,92889.47
2022-08-05T19:44:50.941Z,92884.97
2022-08-05T19:47:34.213Z,92885.50
2022-08-05T19:50:21.082Z,92882.34
2022-08-05T19:53:09.502Z,92884.47
2022-08-05T19:56:14.804Z,92884.69
2022-08-05T19:58:58.284Z,92883.91
2022-08-05T20:02:02.238Z,92887.59
2022-08-05T20:04:46.459Z,92879.13
2022-08-05T20:07:45.888Z,92877.00
2022-08-05T20:10:31.560Z,92875.38
2022-08-05T20:13:15.794Z,92876.97
2022-08-05T20:16:00.187Z,92876.94
2022-08-05T20:18:43.323Z,92879.59
2022-08-05T20:21:28.705Z,92879.06
2022-08-05T20:24:14.374Z,92878.00
2022-08-05T20:26:59.240Z,92887.25
2022-08-05T20:29:42.584Z,92889.66
2022-08-05T20:32:45.459Z,92902.91
2022-08-05T20:35:29.599Z,92902.88
2022-08-05T20:38:26.733Z,92903.66
2022-08-05T20:41:11.108Z,92903.94
2022-08-05T20:44:17.710Z,92911.34
2022-08-05T20:47:06.764Z,92916.59
2022-08-05T20:49:52.130Z,92920.47
2022-08-05T20:52:35.354Z,92928.13
2022-08-05T20:55:56.341Z,92925.16
2022-08-05T20:58:21.959Z,92929.56
2022-08-05T21:01:05.566Z,92933.41
2022-08-05T21:03:48.919Z,92941.56
2022-08-05T21:06:33.369Z,92951.25
2022-08-05T21:09:17.361Z,92962.81
2022-08-05T21:12:10.127Z,92969.06
2022-08-05T21:14:54.882Z,92979.19
2022-08-05T21:17:38.059Z,92989.03
2022-08-05T21:20:33.326Z,92994.66
2022-08-05T21:23:18.165Z,93005.72
2022-08-05T21:26:01.215Z,93004.59
2022-08-05T21:28:47.737Z,93013.56
2022-08-05T21:31:40.928Z,93002.78
2022-08-05T21:34:24.926Z,92992.25
2022-08-05T21:37:08.778Z,92992.25
2022-08-05T21:39:53.379Z,92990.78
2022-08-05T21:42:43.825Z,93006.94
2022-08-05T21:45:51.553Z,93011.03
2022-08-05T21:48:31.741Z,93009.66
2022-08-05T21:52:15.992Z,93014.41
2022-08-05T21:54:18.075Z,93016.25
2022-08-05T21:57:30.810Z,93013.53
2022-08-05T22:00:15.901Z,92999.63
2022-08-05T22:02:59.815Z,92997.38
2022-08-05T22:05:48.656Z,92982.94
2022-08-05T22:08:32.382Z,92989.78
2022-08-05T22:11:15.922Z,92982.56
2022-08-05T22:14:32.516Z,92988.25
2022-08-05T22:17:06.790Z,93000.72
2022-08-05T22:20:02.938Z,93014.53
2022-08-05T22:23:16.922Z,93035.88
2022-08-05T22:26:17.733Z,93030.91
2022-08-05T22:29:05.185Z,93039.44
2022-08-05T22:31:55.171Z,93042.31
2022-08-05T22:34:42.681Z,93049.34
2022-08-05T22:37:25.782Z,93063.53
2022-08-05T22:40:30.709Z,93080.84
2022-08-05T22:43:13.941Z,93080.06
2022-08-05T22:45:58.425Z,93084.97
2022-08-05T22:48:41.766Z,93089.84
2022-08-05T22:52:06.018Z,93096.00
2022-08-05T22:54:27.870Z,93097.31
2022-08-05T22:57:11.803Z,93109.88
2022-08-05T22:59:54.897Z,93119.41
2022-08-05T23:02:40.178Z,93117.78
2022-08-05T23:05:30.193Z,93128.88
2022-08-05T23:08:19.080Z,93123.84
2022-08-05T23:11:02.183Z,93131.72
2022-08-05T23:13:45.201Z,93127.06
2022-08-05T23:16:52.170Z,93139.16
2022-08-05T23:19:38.610Z,93142.38
2022-08-05T23:22:31.017Z,93140.91
2022-08-05T23:25:17.103Z,93131.66
2022-08-05T23:28:17.557Z,93129.88
2022-08-05T23:31:16.176Z,93131.44
2022-08-05T23:34:05.012Z,93130.59
2022-08-05T23:36:50.999Z,93129.31
2022-08-05T23:39:53.358Z,93125.44
2022-08-05T23:42:37.893Z,93131.59
2022-08-05T23:45:21.101Z,93132.22
2022-08-05T23:48:07.358Z,93125.84
2022-08-05T23:50:52.550Z,93132.53
2022-08-05T23:53:46.363Z,93128.97
2022-08-05T23:56:30.161Z,93116.50
2022-08-05T23:59:13.737Z,93121.78
